3 – eServices

Baggage tracing
Cargo tracing
Weather
  • METAR

    EFMA 181750Z AUTO 20002KT CAVOK 26/14 Q1013

    EFTU 181750Z AUTO 24007KT 180V260 CAVOK 27/13 Q1013

    EFHK 181750Z 11008KT CAVOK 26/14 Q1013 NOSIG

    ESSA 181750Z 10006KT CAVOK 28/12 Q1013 NOSIG

    ESSB 181750Z 08006KT 050V120 CAVOK 27/13 Q1013

  • TAF n/a

Flightradar24